Historyczne dane pomiarowe

Dodano dane terminowe – wersja testowa.

Dane z okresu 1951-2019

Wersja bazy: 1.34 [2019-03-16, lista zmian], aktualizacja planowana na 2019-04-15

Dane meteo z obszaru Polski uzyskane na podstawie danych udostępnionych przez Instytut Meteorologii i Gospodarki Wodnej – Państwowy Instytut Badawczy.

 

Wybierz Datę:    

       

TemperaturaWilgotnośćWiatrCiśnienieOpadyŚniegCzas trwania zjawisk
 Stacja t tx tn tng RH VA  wxwx mslp ppp RRR   cm mm wxwxwxwxwxwxwx
1999-08-14 12.9 18.7 7.6- 74.8- 2.3 0.7---- 0.0------------
1999-08-13 14.5 19.3 11.1- 75.3- 4.7 0.3---- 0.0------------
1999-08-12 14.2 19.4 9.0- 94.5- 7.7 0.3---- 0.0------------
1999-08-11 18.5 23.1 14.5- 85.8- 2.3 0.3---- 11.8------------
1999-08-10 19.3 28.3 10.7- 92.0- 7.0 1.3---- 18.4------------
1999-08-09 19.4 29.8 12.5- 82.0- 6.3 1.7---- 1.2------------
1999-08-08 20.5 26.9 15.0- 78.5- 4.3 0.7---- 0.0------------
1999-08-07 18.8 27.1 12.4- 80.8- 5.3 0.7---- 6.7------------
1999-08-06 19.2 26.7 14.0- 87.8- 5.3 0.3---- 1.3------------
1999-08-05 15.9 24.3 8.6- 76.8- 4.3 0.7---- 0.0------------
1999-08-04 14.5 21.4 7.6- 74.8- 5.7 0.0---- 0.0------------
1999-08-03 14.4 19.9 10.3- 88.5- 7.0 0.0---- 0.1------------
1999-08-02 13.1 18.1 9.5- 96.5- 8.0 0.0---- 0.6------------
1999-08-01 16.0 22.9 12.6- 93.0- 8.0 0.7---- 1.1------------
1999-07-31 14.5 21.4 8.7- 71.3- 6.0 0.0---- 0.8------------
1999-07-30 13.0 19.9 8.0- 90.5- 4.0 0.3---- 0.7------------
1999-07-29 15.5 19.4 11.6- 85.3- 2.7 0.0---- 0.0------------
1999-07-28 18.2 22.4 15.9- 93.5- 5.7 0.0---- 0.0------------
1999-07-27 17.6 19.6 16.0- 77.5- 8.0 0.0---- 0.1------------
1999-07-26 17.3 24.2 12.4- 87.5- 6.0 1.3---- 0.0------------
1999-07-25 15.6 22.5 9.6- 85.5- 4.7 1.0---- 0.0------------
1999-07-24 14.8 18.4 11.3- 89.8- 8.0 0.0---- 0.0------------
1999-07-23 13.9 17.4 12.0- 99.5- 8.0 0.0---- 10.0------------
1999-07-22 17.3 23.9 13.0- 85.5- 4.3 1.3---- 14.8------------
1999-07-21 19.4 27.7 12.3- 77.3- 3.3 1.7---- 0.2------------
1999-07-20 18.4 27.0 10.2- 71.5- 2.0 1.7---- 0.0------------
1999-07-19 16.7 25.8 8.7- 69.8- 4.3 0.3---- 0.0------------
1999-07-18 15.2 23.2 8.4- 70.3- 4.3 0.7---- 0.0------------
1999-07-17 14.9 20.3 10.8- 86.5- 5.0 0.3---- 0.0------------
1999-07-16 14.8 20.8 9.2- 76.0- 4.0 0.0---- 0.0------------
1999-07-15 16.9 20.7 14.7- 83.5- 5.3 1.0---- 0.0------------
1999-07-14 18.3 23.4 14.4- 94.5- 5.7 0.7---- 5.9------------
1999-07-13 18.9 23.4 15.7- 90.3- 6.3 1.7---- 1.6------------
1999-07-12 18.7 24.0 14.7- 95.5- 7.7 1.7---- 2.9------------
1999-07-11 18.7 20.5 16.9-100.0- 6.7 2.7---- 17.5------------
1999-07-10 18.4 20.1 17.0-100.0- 7.7 1.7---- 0.0------------
1999-07-09 18.3 21.7 15.3- 97.8- 8.0 1.3---- 0.0------------
1999-07-08 19.0 22.9 16.7- 96.3- 7.7 1.7---- 42.7------------
1999-07-07 19.7 26.4 15.3-100.0- 4.0 0.3---- 29.4------------
1999-07-06 22.0 29.6 15.0- 74.8- 2.0 2.3---- 0.0------------
1999-07-05 20.7 28.8 13.2- 72.0- 0.3 3.7---- 0.0------------
1999-07-04 20.0 29.3 11.5- 73.3- 2.7 0.3---- 0.0------------
1999-07-03 17.6 24.4 12.0- 80.0- 5.0 0.0---- 0.0------------
1999-07-02 17.9 22.7 14.6- 95.5- 5.3 1.7---- 1.2------------
1999-07-01 17.3 24.4 11.9- 81.5- 7.0 0.0---- 0.0------------
1999-06-30 18.4 23.5 13.8- 84.8- 5.3 1.0---- 0.0------------
1999-06-29 18.1 23.8 12.7- 79.8- 6.7 1.3---- 0.0------------
1999-06-28 16.4 26.2 9.4- 84.0- 5.3 1.7---- 1.1------------
1999-06-27 16.8 25.7 8.1- 69.8- 1.0 2.0---- 0.0------------
1999-06-26 13.7 23.0 4.7- 75.5- 4.7 1.7---- 0.0------------
1999-06-25 11.5 18.9 4.4- 72.0- 3.0 1.7---- 0.0------------
1999-06-24 9.8 11.9 8.1- 92.5- 8.0 0.3---- 0.0------------
1999-06-23 8.2 9.5 7.1-100.0- 8.0 3.0---- 5.5------------
1999-06-22 10.5 15.7 7.6-100.0- 8.0 4.0---- 12.8------------
1999-06-21 17.2 22.2 15.0- 96.5- 8.0 0.3---- 18.1------------
1999-06-20 17.2 20.0 14.4-100.0- 7.7 0.3---- 7.6------------
1999-06-19 16.3 20.3 13.4- 94.0- 7.0 1.3---- 0.0------------
1999-06-18 16.6 20.0 14.4- 98.0- 7.7 0.0---- 9.2------------
1999-06-17 16.9 21.9 14.9- 94.8- 7.0 0.3---- 10.1------------
1999-06-16 17.7 20.9 15.4- 97.3- 7.7 0.3---- 2.1------------
308.8 ms

 

Źródłem pochodzenia danych jest Instytut Meteorologii i Gospodarki Wodnej – Państwowy Instytut Badawczy. Dane Instytutu Meteorologii i Gospodarki Wodnej – Państwowego Instytutu Badawczego zostały przetworzone.

Dane źródłowe można odnaleźć na stronie https://dane.imgw.pl